createdAt,value
2023-05-11T03:43:59.020Z,100456.50
2023-05-11T03:47:04.146Z,100456.50
2023-05-11T03:50:09.154Z,100464.31
2023-05-11T03:53:12.535Z,100461.09
2023-05-11T03:56:14.807Z,100466.94
2023-05-11T03:59:18.021Z,100462.72
2023-05-11T04:02:20.575Z,100467.97
2023-05-11T04:05:23.400Z,100468.66
2023-05-11T04:08:27.009Z,100470.69
2023-05-11T04:11:30.418Z,100472.81
2023-05-11T04:14:32.787Z,100468.56
2023-05-11T04:17:35.530Z,100473.84
2023-05-11T04:20:37.812Z,100478.91
2023-05-11T04:23:40.487Z,100479.53
2023-05-11T04:26:42.817Z,100475.62
2023-05-11T04:29:45.529Z,100489.19
2023-05-11T04:32:47.909Z,100485.19
2023-05-11T04:35:51.977Z,100489.53
2023-05-11T04:38:54.471Z,100491.56
2023-05-11T04:41:57.482Z,100498.19
2023-05-11T04:45:00.158Z,100500.41
2023-05-11T04:48:02.952Z,100499.66
2023-05-11T04:51:06.248Z,100500.34
2023-05-11T04:54:10.319Z,100499.50
2023-05-11T04:57:12.705Z,100499.53
2023-05-11T05:00:16.037Z,100503.75
2023-05-11T05:03:18.726Z,100504.44
2023-05-11T05:06:21.410Z,100507.03
2023-05-11T05:09:23.695Z,100502.63
2023-05-11T05:12:26.428Z,100503.03
2023-05-11T05:15:28.910Z,100505.75
2023-05-11T05:18:31.885Z,100506.69
2023-05-11T05:21:35.778Z,100512.78
2023-05-11T05:24:38.747Z,100511.78
2023-05-11T05:27:41.192Z,100517.97
2023-05-11T05:30:44.287Z,100512.91
2023-05-11T05:33:46.889Z,100515.78
2023-05-11T05:36:51.077Z,100515.13
2023-05-11T05:39:53.784Z,100513.06
2023-05-11T05:42:56.534Z,100510.34
2023-05-11T05:45:59.373Z,100513.94
2023-05-11T05:49:02.745Z,100522.63
2023-05-11T05:52:05.599Z,100521.09
2023-05-11T05:55:08.627Z,100522.00
2023-05-11T05:58:11.021Z,100526.31
2023-05-11T06:01:14.352Z,100531.63
2023-05-11T06:04:17.276Z,100530.84
2023-05-11T06:07:19.717Z,100524.06
2023-05-11T06:10:22.724Z,100529.44
2023-05-11T06:13:26.644Z,100529.44
2023-05-11T06:16:30.322Z,100531.59
2023-05-11T06:19:36.998Z,100527.19
2023-05-11T06:22:40.202Z,100523.22
2023-05-11T06:25:42.692Z,100524.34
2023-05-11T06:28:45.586Z,100525.28
2023-05-11T06:31:52.966Z,100525.69
2023-05-11T06:34:57.240Z,100524.44
2023-05-11T06:37:59.955Z,100530.25
2023-05-11T06:41:02.730Z,100531.56
2023-05-11T06:44:05.865Z,100519.63
2023-05-11T06:47:13.015Z,100524.25
2023-05-11T06:50:15.915Z,100511.78
2023-05-11T06:53:18.856Z,100520.12
2023-05-11T06:56:21.866Z,100513.81
2023-05-11T06:59:25.026Z,100516.38
2023-05-11T07:02:27.928Z,100512.75
2023-05-11T07:05:31.297Z,100504.50
2023-05-11T07:08:33.888Z,100503.50
2023-05-11T07:11:37.678Z,100500.19
2023-05-11T07:14:40.203Z,100499.34
2023-05-11T07:17:43.175Z,100497.03
2023-05-11T07:20:49.940Z,100501.53
2023-05-11T07:23:52.792Z,100503.50
2023-05-11T07:26:56.984Z,100499.38
2023-05-11T07:29:59.642Z,100501.50
2023-05-11T07:33:03.095Z,100504.25
2023-05-11T07:36:07.322Z,100501.31
2023-05-11T07:39:10.846Z,100490.69
2023-05-11T07:42:13.904Z,100496.47
2023-05-11T07:45:19.404Z,100493.41
2023-05-11T07:48:22.321Z,100496.06
2023-05-11T07:51:24.782Z,100491.22
2023-05-11T07:54:27.508Z,100497.31
2023-05-11T07:57:30.042Z,100494.84
2023-05-11T08:00:33.481Z,100495.44
2023-05-11T08:03:36.002Z,100494.87
2023-05-11T08:06:38.692Z,100506.09
2023-05-11T08:09:41.556Z,100494.87
2023-05-11T08:12:44.183Z,100496.38
2023-05-11T08:15:46.902Z,100499.00
2023-05-11T08:18:49.450Z,100491.69
2023-05-11T08:21:52.494Z,100495.06
2023-05-11T08:24:55.441Z,100493.38
2023-05-11T08:27:58.509Z,100488.03
2023-05-11T08:31:01.037Z,100481.91
2023-05-11T08:34:03.840Z,100485.28
2023-05-11T08:37:06.458Z,100479.69
2023-05-11T08:40:13.818Z,100476.38
2023-05-11T08:43:19.345Z,100461.75
2023-05-11T08:46:24.439Z,100459.66
2023-05-11T08:49:27.433Z,100460.81
2023-05-11T08:52:30.414Z,100463.13
2023-05-11T08:55:34.118Z,100451.28
2023-05-11T08:58:38.469Z,100459.94
2023-05-11T09:01:41.931Z,100459.09
2023-05-11T09:04:48.187Z,100444.97
2023-05-11T09:07:55.401Z,100448.09
2023-05-11T09:10:59.232Z,100447.84
2023-05-11T09:14:02.062Z,100447.22
2023-05-11T09:17:04.853Z,100435.81
2023-05-11T09:20:09.447Z,100439.94
2023-05-11T09:23:17.407Z,100447.00
2023-05-11T09:26:21.593Z,100427.25
2023-05-11T09:29:30.325Z,100431.03
2023-05-11T09:32:48.582Z,100420.63
2023-05-11T09:35:52.664Z,100419.00
2023-05-11T09:39:03.659Z,100426.78
2023-05-11T09:42:14.248Z,100424.69
2023-05-11T09:45:36.772Z,100418.25
2023-05-11T09:48:39.421Z,100408.66
2023-05-11T09:51:41.889Z,100401.59
2023-05-11T09:54:50.838Z,100413.59
2023-05-11T09:57:56.175Z,100407.94
2023-05-11T10:00:59.202Z,100406.22
2023-05-11T10:04:21.272Z,100408.97
2023-05-11T10:07:26.533Z,100409.53
2023-05-11T10:10:30.775Z,100393.81
2023-05-11T10:13:34.058Z,100394.91
2023-05-11T10:16:36.854Z,100395.03
2023-05-11T10:19:39.490Z,100381.59
2023-05-11T10:22:42.898Z,100389.44
2023-05-11T10:25:45.264Z,100386.06
2023-05-11T10:28:47.953Z,100382.28
2023-05-11T10:31:52.073Z,100385.66
2023-05-11T10:34:56.793Z,100377.91
2023-05-11T10:38:01.082Z,100383.25
2023-05-11T10:41:30.971Z,100388.63
2023-05-11T10:44:56.280Z,100377.66
2023-05-11T10:48:20.708Z,100381.44
2023-05-11T10:51:44.134Z,100377.41
2023-05-11T10:55:24.096Z,100387.72
2023-05-11T10:58:43.780Z,100360.66
2023-05-11T11:01:47.001Z,100372.78
2023-05-11T11:04:51.741Z,100363.41
2023-05-11T11:08:04.172Z,100358.25
2023-05-11T11:11:34.795Z,100353.69
2023-05-11T11:15:02.964Z,100356.09
2023-05-11T11:18:27.912Z,100355.94
2023-05-11T11:21:42.238Z,100346.41
2023-05-11T11:24:45.652Z,100349.28
2023-05-11T11:27:52.464Z,100346.63
2023-05-11T11:31:28.074Z,100340.34
2023-05-11T11:34:32.224Z,100342.63
2023-05-11T11:38:04.154Z,100334.53
2023-05-11T11:41:08.355Z,100331.31
2023-05-11T11:44:26.648Z,100336.53
2023-05-11T11:47:29.439Z,100332.53
2023-05-11T11:50:33.921Z,100325.28
2023-05-11T11:53:37.365Z,100343.78
2023-05-11T11:56:41.651Z,100330.69
2023-05-11T11:59:47.827Z,100341.91
2023-05-11T12:02:50.400Z,100331.13
2023-05-11T12:06:00.711Z,100324.28
2023-05-11T12:09:05.314Z,100324.69
2023-05-11T12:12:09.638Z,100322.59
2023-05-11T12:15:29.743Z,100315.16
2023-05-11T12:18:32.879Z,100312.50
2023-05-11T12:21:35.516Z,100321.69
2023-05-11T12:24:39.300Z,100314.44
2023-05-11T12:27:58.015Z,100307.47
2023-05-11T12:31:01.024Z,100308.03
2023-05-11T12:34:03.753Z,100304.81
2023-05-11T12:37:06.978Z,100304.78
2023-05-11T12:40:13.084Z,100310.81
2023-05-11T12:43:20.326Z,100291.34
2023-05-11T12:46:23.580Z,100293.03
2023-05-11T12:49:27.581Z,100293.31
2023-05-11T12:52:30.142Z,100287.97
2023-05-11T12:55:35.925Z,100290.22
2023-05-11T12:58:40.299Z,100288.37
2023-05-11T13:01:42.955Z,100283.91
2023-05-11T13:04:46.960Z,100280.41
2023-05-11T13:08:01.666Z,100279.53
2023-05-11T13:11:25.374Z,100274.50
2023-05-11T13:14:31.669Z,100262.12
2023-05-11T13:17:38.834Z,100259.47
2023-05-11T13:20:43.130Z,100255.44
2023-05-11T13:23:49.628Z,100252.06
2023-05-11T13:26:53.291Z,100248.59
2023-05-11T13:29:55.659Z,100251.28
2023-05-11T13:32:58.320Z,100235.84
2023-05-11T13:36:02.086Z,100252.78
2023-05-11T13:39:05.276Z,100248.81
2023-05-11T13:42:07.657Z,100244.25
2023-05-11T13:45:11.924Z,100243.47
2023-05-11T13:48:14.323Z,100242.28
2023-05-11T13:51:17.224Z,100233.00
2023-05-11T13:54:21.370Z,100225.72
2023-05-11T13:57:26.917Z,100225.72
2023-05-11T14:00:29.582Z,100234.44
2023-05-11T14:03:33.465Z,100231.47
2023-05-11T14:06:36.319Z,100224.19
2023-05-11T14:09:39.104Z,100224.63
2023-05-11T14:12:41.605Z,100224.03
2023-05-11T14:15:44.348Z,100221.13
2023-05-11T14:18:47.241Z,100217.06
2023-05-11T14:21:49.833Z,100218.72
2023-05-11T14:24:52.080Z,100223.22
2023-05-11T14:27:55.515Z,100215.66
2023-05-11T14:30:58.157Z,100221.09
2023-05-11T14:34:00.840Z,100212.16
2023-05-11T14:37:03.389Z,100204.03
2023-05-11T14:40:06.896Z,100204.84
2023-05-11T14:43:10.054Z,100203.44
2023-05-11T14:46:12.909Z,100200.38
2023-05-11T14:49:15.591Z,100207.41
2023-05-11T14:52:18.483Z,100203.75
2023-05-11T14:55:21.224Z,100202.06
2023-05-11T14:58:24.393Z,100202.19
2023-05-11T15:01:27.071Z,100206.13
2023-05-11T15:04:29.784Z,100205.97
2023-05-11T15:07:32.465Z,100200.50
2023-05-11T15:10:39.855Z,100208.75
2023-05-11T15:13:42.350Z,100206.19
2023-05-11T15:16:45.971Z,100199.63
2023-05-11T15:19:49.576Z,100199.87
2023-05-11T15:22:52.296Z,100205.06
2023-05-11T15:25:54.649Z,100209.56
2023-05-11T15:28:57.459Z,100202.00
2023-05-11T15:32:00.016Z,100212.75
2023-05-11T15:35:02.816Z,100213.28
2023-05-11T15:38:05.521Z,100208.28
2023-05-11T15:41:08.957Z,100216.94
2023-05-11T15:44:11.386Z,100215.06
2023-05-11T15:47:14.090Z,100219.63
2023-05-11T15:50:16.790Z,100216.44
2023-05-11T15:53:19.477Z,100223.13
2023-05-11T15:56:22.642Z,100224.47
2023-05-11T15:59:25.401Z,100223.19
2023-05-11T16:02:27.809Z,100220.72
2023-05-11T16:05:30.641Z,100221.69
